Le Mars, IA

7:58 AM CST on December 07, 2016 (GMT -0600)
Le Mars Municipal

Weather History for KLRJ - January, 2014

Change the Weather History Date:

Saturday, January 4, 2014

  Actual Average Record
Temperature  
Mean Temperature 21 °F -  
Max Temperature 39 °F 24 °F 53 °F (2012)
Min Temperature 3 °F 3 °F -19 °F (1972)
Degree Days  
Heating Degree Days 44    
Moisture  
Dew Point 11 °F    
Average Humidity 75    
Maximum Humidity 87    
Minimum Humidity 67    
Precipitation  
Precipitation 0.00 in - - ()
Sea Level Pressure  
Sea Level Pressure 29.99 in    
Wind  
Wind Speed 14 mph (NNW)    
Max Wind Speed 30 mph    
Max Gust Speed 38 mph    
Visibility 10 miles    
Events Rain , Snow    
Averages and records for this station are not official NWS values.
T = Trace of Precipitation, MM = Missing Value Source: NWS Daily Summary

Daily Weather History Graph

Daily Weather History Graph

Search for Another Location

Airport or City:

Trip Planner

Search our weather history database for the weather conditions in past years. The results will help you decide how hot, cold, wet, or windy it might be!

Date:

Astronomy

Jan. 04, 2014 Rise Set
Actual Time 7:55 AM CST 5:04 PM CST
Civil Twilight 7:23 AM CST 5:36 PM CST
Nautical Twilight 6:48 AM CST 6:11 PM CST
Astronomical Twilight 6:13 AM CST 6:46 PM CST
Moon 9:55 AM CST (1/4) 9:31 PM CST (1/4)
Length of Visible Light 10h 12m
Length of Day
9h 08m
Waxing Crescent, 15% of the Moon is Illuminated
Jan 4
Waxing Crescent
Jan 7
First Quarter
Jan 15
Full
Jan 23
Last Quarter
Jan 30
New

Hourly Weather History & Observations

Time (CST) Temp. Windchill Dew Point Humidity Pressure Visibility Wind Dir Wind Speed Gust Speed Precip Events Conditions
12:15 AM 35.6 °F 28.6 °F 30.2 °F 81% 29.54 in 10.0 mi SSW 9.2 mph - N/A   Unknown
12:35 AM 35.6 °F 29.2 °F 32.0 °F 87% 29.54 in 10.0 mi SSW 8.1 mph - N/A   Unknown
12:55 AM 35.6 °F - 32.0 °F 87% 29.55 in 10.0 mi Calm Calm - N/A   Unknown
1:15 AM 35.6 °F 31.7 °F 32.0 °F 87% 29.55 in 10.0 mi SW 4.6 mph - N/A   Unknown
1:35 AM 39.2 °F 35.0 °F 33.8 °F 81% 29.57 in 10.0 mi Variable 5.8 mph - N/A   Unknown
1:55 AM 39.2 °F 37.0 °F 33.8 °F 81% 29.57 in 10.0 mi Variable 3.5 mph - N/A   Unknown
2:15 AM 39.2 °F 35.0 °F 33.8 °F 81% 29.58 in 10.0 mi Variable 5.8 mph - N/A   Overcast
2:35 AM 39.2 °F 33.6 °F 33.8 °F 81% 29.61 in 10.0 mi West 8.1 mph - N/A   Unknown
2:55 AM 39.2 °F 32.0 °F 32.0 °F 75% 29.62 in 10.0 mi West 11.5 mph 17.3 mph N/A   Unknown
3:15 AM 39.2 °F 30.2 °F 32.0 °F 75% 29.63 in 10.0 mi WNW 17.3 mph 24.2 mph N/A   Unknown
3:35 AM 39.2 °F 29.3 °F 32.0 °F 75% 29.65 in - NW 20.7 mph 32.2 mph N/A   Unknown
3:55 AM 33.8 °F 22.5 °F 30.2 °F 87% 29.68 in 10.0 mi NW 19.6 mph - N/A   Unknown
4:15 AM 28.4 °F 12.7 °F 24.8 °F 86% 29.70 in 10.0 mi NW 29.9 mph 38.0 mph N/A   Unknown
4:35 AM 24.8 °F 10.3 °F 21.2 °F 86% 29.75 in 10.0 mi NW 20.7 mph 33.4 mph N/A   Unknown
4:55 AM 24.8 °F 9.3 °F 19.4 °F 80% 29.77 in 10.0 mi NW 24.2 mph 31.1 mph N/A   Unknown
5:15 AM 21.2 °F 4.9 °F 15.8 °F 80% 29.79 in 10.0 mi NW 23.0 mph 32.2 mph N/A   Unknown
5:35 AM 19.4 °F 4.1 °F 14.0 °F 80% 29.83 in 10.0 mi NW 18.4 mph 32.2 mph N/A   Unknown
5:55 AM 19.4 °F 2.5 °F 14.0 °F 80% 29.83 in 10.0 mi NW 23.0 mph 29.9 mph N/A   Unknown
6:15 AM 17.6 °F 0.1 °F 14.0 °F 86% 29.83 in 10.0 mi NNW 23.0 mph 29.9 mph N/A   Unknown
6:35 AM 17.6 °F 0.9 °F 10.4 °F 73% 29.88 in 10.0 mi NNW 20.7 mph 32.2 mph N/A   Unknown
6:55 AM 17.6 °F 1.3 °F 10.4 °F 73% 29.88 in 10.0 mi NNW 19.6 mph 27.6 mph N/A   Unknown
7:15 AM 15.8 °F -1.5 °F 8.6 °F 73% 29.91 in 10.0 mi NNW 20.7 mph 32.2 mph N/A Rain Light Freezing Rain
7:35 AM 14.0 °F -3.9 °F 8.6 °F 79% 29.93 in 10.0 mi NNW 20.7 mph 27.6 mph N/A   Unknown
7:55 AM 14.0 °F -4.3 °F 8.6 °F 79% 29.92 in 10.0 mi North 21.9 mph 29.9 mph N/A Rain Light Freezing Rain
8:15 AM 14.0 °F -3.0 °F 8.6 °F 79% 29.94 in 10.0 mi North 18.4 mph 27.6 mph N/A   Light Freezing Rain
8:35 AM 14.0 °F -3.9 °F 8.6 °F 79% 29.98 in 9.0 mi North 20.7 mph - N/A Rain Light Freezing Rain
8:55 AM 14.0 °F -3.0 °F 6.8 °F 73% 29.98 in 10.0 mi NNW 18.4 mph - N/A   Mostly Cloudy
9:15 AM 14.0 °F -2.0 °F 6.8 °F 73% 29.99 in 10.0 mi NNW 16.1 mph 27.6 mph N/A   Partly Cloudy
9:35 AM 14.0 °F -4.7 °F 6.8 °F 73% 30.00 in 10.0 mi North 23.0 mph - N/A   Scattered Clouds
9:55 AM 14.0 °F -4.3 °F 6.8 °F 73% 29.99 in 10.0 mi North 21.9 mph 27.6 mph N/A   Partly Cloudy
10:15 AM 12.2 °F -6.3 °F 5.0 °F 73% 30.03 in 10.0 mi NNW 20.7 mph 28.8 mph N/A   Clear
10:35 AM 14.0 °F -5.1 °F 5.0 °F 67% 30.03 in 10.0 mi North 24.2 mph 29.9 mph N/A   Scattered Clouds
10:55 AM 14.0 °F -4.3 °F 5.0 °F 67% 30.05 in 10.0 mi North 21.9 mph 27.6 mph N/A   Mostly Cloudy
11:15 AM 14.0 °F -3.4 °F 5.0 °F 67% 30.03 in 10.0 mi North 19.6 mph 27.6 mph N/A   Mostly Cloudy
11:35 AM 14.0 °F -3.9 °F 5.0 °F 67% 30.03 in 10.0 mi North 20.7 mph 26.5 mph N/A   Scattered Clouds
11:55 AM 14.0 °F -3.0 °F 5.0 °F 67% 30.06 in 10.0 mi North 18.4 mph 27.6 mph N/A   Clear
12:15 PM 14.0 °F -2.5 °F 5.0 °F 67% 30.07 in 10.0 mi North 17.3 mph 28.8 mph N/A   Clear
12:35 PM 14.0 °F -3.4 °F 5.0 °F 67% 30.06 in 10.0 mi North 19.6 mph 28.8 mph N/A   Clear
12:55 PM 15.8 °F -1.9 °F 6.8 °F 68% 30.06 in 10.0 mi North 21.9 mph 29.9 mph N/A   Clear
1:15 PM 15.8 °F -2.3 °F 6.8 °F 68% 30.05 in 10.0 mi North 23.0 mph - N/A   Partly Cloudy
1:35 PM 15.8 °F -0.2 °F 6.8 °F 68% 30.04 in 10.0 mi North 17.3 mph 25.3 mph N/A   Scattered Clouds
1:55 PM 15.8 °F 0.9 °F 6.8 °F 68% 30.06 in 10.0 mi NNW 15.0 mph 21.9 mph N/A   Overcast
2:15 PM 15.8 °F 1.4 °F 8.6 °F 73% 30.07 in 10.0 mi NNW 13.8 mph 23.0 mph N/A   Overcast
2:35 PM 15.8 °F -0.2 °F 8.6 °F 73% 30.09 in 10.0 mi NNW 17.3 mph - N/A   Mostly Cloudy
2:55 PM 17.6 °F 3.2 °F 8.6 °F 68% 30.09 in 10.0 mi NNW 15.0 mph 20.7 mph N/A   Overcast
3:15 PM 17.6 °F 3.2 °F 8.6 °F 68% 30.10 in 10.0 mi NNW 15.0 mph - N/A   Mostly Cloudy
3:35 PM 17.6 °F 3.7 °F 8.6 °F 68% 30.10 in 10.0 mi NNW 13.8 mph - N/A   Overcast
3:55 PM 15.8 °F 2.7 °F 8.6 °F 73% 30.10 in 10.0 mi NNW 11.5 mph 19.6 mph N/A   Mostly Cloudy
4:15 PM 15.8 °F 2.7 °F 8.6 °F 73% 30.11 in 10.0 mi NNW 11.5 mph - N/A   Mostly Cloudy
4:35 PM 15.8 °F 2.1 °F 10.4 °F 79% 30.12 in 10.0 mi NNW 12.7 mph - N/A   Mostly Cloudy
4:55 PM 14.0 °F 0.5 °F 8.6 °F 79% 30.14 in 10.0 mi NW 11.5 mph - N/A   Mostly Cloudy
5:15 PM 14.0 °F 1.2 °F 8.6 °F 79% 30.15 in 7.0 mi NNW 10.4 mph 18.4 mph N/A Snow Light Snow
5:35 PM 14.0 °F 0.5 °F 6.8 °F 73% 30.16 in 10.0 mi North 11.5 mph - N/A   Unknown
5:55 PM 12.2 °F -1.0 °F 6.8 °F 79% 30.17 in 10.0 mi NNW 10.4 mph - N/A   Unknown
6:15 PM 12.2 °F -1.0 °F 6.8 °F 79% 30.17 in 10.0 mi NNW 10.4 mph - N/A   Unknown
6:35 PM 10.4 °F -4.1 °F 5.0 °F 79% 30.18 in 10.0 mi NNW 11.5 mph - N/A   Unknown
6:55 PM 10.4 °F -4.8 °F 5.0 °F 79% 30.20 in 10.0 mi NW 12.7 mph 19.6 mph N/A   Unknown
7:15 PM 10.4 °F -5.4 °F 5.0 °F 79% 30.20 in 10.0 mi NNW 13.8 mph - N/A   Unknown
7:35 PM 8.6 °F -5.5 °F 3.2 °F 79% 30.22 in 10.0 mi NNW 10.4 mph - N/A   Unknown
7:55 PM 8.6 °F -4.7 °F 3.2 °F 79% 30.22 in 10.0 mi NNW 9.2 mph - N/A   Unknown
8:15 PM 8.6 °F -8.9 °F 1.4 °F 73% 30.23 in 10.0 mi North 16.1 mph - N/A   Unknown
8:35 PM 6.8 °F -9.3 °F -0.4 °F 72% 30.25 in 10.0 mi North 12.7 mph - N/A   Unknown
8:55 PM 6.8 °F -7.8 °F -0.4 °F 72% 30.26 in 10.0 mi NNW 10.4 mph - N/A   Unknown
9:15 PM 5.0 °F -9.1 °F -0.4 °F 78% 30.25 in 10.0 mi NNW 9.2 mph - N/A   Unknown
9:35 PM 5.0 °F -11.6 °F -2.2 °F 72% 30.26 in 10.0 mi NNW 12.7 mph - N/A   Unknown
9:55 PM 5.0 °F -14.2 °F -2.2 °F 72% 30.26 in 10.0 mi North 17.3 mph - N/A   Unknown
10:15 PM 5.0 °F -11.6 °F -2.2 °F 72% 30.27 in 10.0 mi NNW 12.7 mph 19.6 mph N/A   Unknown
10:35 PM 5.0 °F -10.8 °F -2.2 °F 72% 30.27 in 10.0 mi North 11.5 mph - N/A   Unknown
10:55 PM 3.2 °F -13.1 °F -4.0 °F 72% 30.27 in 10.0 mi North 11.5 mph - N/A   Unknown
11:15 PM 3.2 °F -14.6 °F -4.0 °F 72% 30.27 in 10.0 mi North 13.8 mph - N/A   Unknown
11:35 PM 3.2 °F -14.6 °F -4.0 °F 72% 30.27 in 10.0 mi North 13.8 mph - N/A   Unknown
11:55 PM 3.2 °F -13.9 °F -4.0 °F 72% 30.28 in 10.0 mi North 12.7 mph 18.4 mph N/A   Unknown